createdAt,value
2023-05-09T00:01:46.624Z,98752.84
2023-05-09T00:04:48.141Z,98767.16
2023-05-09T00:07:49.802Z,98761.59
2023-05-09T00:10:51.199Z,98753.88
2023-05-09T00:13:53.255Z,98761.72
2023-05-09T00:16:55.032Z,98758.50
2023-05-09T00:19:56.632Z,98753.28
2023-05-09T00:22:57.972Z,98754.00
2023-05-09T00:25:59.499Z,98751.75
2023-05-09T00:29:00.893Z,98745.44
2023-05-09T00:32:02.458Z,98746.53
2023-05-09T00:35:04.309Z,98737.84
2023-05-09T00:38:05.671Z,98739.06
2023-05-09T00:41:07.018Z,98737.97
2023-05-09T00:44:08.533Z,98731.09
2023-05-09T00:47:09.963Z,98732.63
2023-05-09T00:50:11.438Z,98729.16
2023-05-09T00:53:13.204Z,98715.53
2023-05-09T00:56:15.649Z,98714.00
2023-05-09T00:59:18.107Z,98717.03
2023-05-09T01:02:20.526Z,98707.25
2023-05-09T01:05:27.175Z,98702.16
2023-05-09T01:08:43.020Z,98707.38
2023-05-09T01:11:57.147Z,98704.88
2023-05-09T01:15:10.337Z,98708.28
2023-05-09T01:18:19.316Z,98705.22
2023-05-09T01:21:27.845Z,98701.78
2023-05-09T01:25:07.449Z,98700.00
2023-05-09T01:28:16.318Z,98700.09
2023-05-09T01:31:19.571Z,98698.06
2023-05-09T01:34:24.357Z,98699.03
2023-05-09T01:37:31.630Z,98690.94
2023-05-09T01:40:34.945Z,98690.22
2023-05-09T01:43:38.074Z,98680.97
2023-05-09T01:46:40.129Z,98679.13
2023-05-09T01:49:42.803Z,98677.97
2023-05-09T01:52:48.018Z,98676.91
2023-05-09T01:55:51.588Z,98671.78
2023-05-09T01:58:55.786Z,98682.38
2023-05-09T02:01:57.977Z,98677.81
2023-05-09T02:05:01.024Z,98676.59
2023-05-09T02:08:02.509Z,98668.31
2023-05-09T02:11:03.962Z,98676.59
2023-05-09T02:14:06.311Z,98676.72
2023-05-09T02:17:09.512Z,98674.22
2023-05-09T02:20:11.619Z,98679.06
2023-05-09T02:23:13.168Z,98682.06
2023-05-09T02:26:14.769Z,98675.19
2023-05-09T02:29:19.682Z,98679.31
2023-05-09T02:32:23.075Z,98686.22
2023-05-09T02:35:27.198Z,98690.59
2023-05-09T02:38:28.553Z,98679.19
2023-05-09T02:41:30.779Z,98679.31
2023-05-09T02:44:32.847Z,98682.31
2023-05-09T02:47:34.253Z,98673.66
2023-05-09T02:50:38.098Z,98676.53
2023-05-09T02:53:39.501Z,98673.19
2023-05-09T02:56:40.874Z,98671.41
2023-05-09T02:59:42.282Z,98666.09
2023-05-09T03:02:43.865Z,98658.34
2023-05-09T03:05:45.483Z,98662.03
2023-05-09T03:08:46.827Z,98665.47
2023-05-09T03:11:48.164Z,98667.13
2023-05-09T03:14:49.556Z,98670.56
2023-05-09T03:17:50.981Z,98665.63
2023-05-09T03:20:52.479Z,98663.25
2023-05-09T03:23:53.839Z,98663.38
2023-05-09T03:26:55.238Z,98660.22
2023-05-09T03:29:56.725Z,98663.31
2023-05-09T03:32:58.130Z,98661.91
2023-05-09T03:35:59.485Z,98662.16
2023-05-09T03:39:00.945Z,98654.19
2023-05-09T03:42:02.346Z,98654.09
2023-05-09T03:45:04.023Z,98648.19
2023-05-09T03:48:08.523Z,98644.88
2023-05-09T03:51:10.083Z,98655.44
2023-05-09T03:54:12.207Z,98653.66
2023-05-09T03:57:13.636Z,98656.03
2023-05-09T04:00:15.282Z,98658.19
2023-05-09T04:03:16.802Z,98656.53
2023-05-09T04:06:18.834Z,98659.03
2023-05-09T04:09:20.370Z,98662.75
2023-05-09T04:12:21.997Z,98669.38
2023-05-09T04:15:26.302Z,98668.53
2023-05-09T04:18:27.880Z,98671.16
2023-05-09T04:21:29.305Z,98671.28
2023-05-09T04:24:30.684Z,98671.50
2023-05-09T04:27:32.040Z,98658.91
2023-05-09T04:30:33.393Z,98653.59
2023-05-09T04:33:35.913Z,98645.53
2023-05-09T04:36:37.270Z,98649.22
2023-05-09T04:39:39.048Z,98657.16
2023-05-09T04:42:41.241Z,98657.63
2023-05-09T04:45:42.612Z,98662.41
2023-05-09T04:48:44.026Z,98659.16
2023-05-09T04:51:45.488Z,98654.56
2023-05-09T04:54:46.897Z,98658.59
2023-05-09T04:57:48.281Z,98655.72
2023-05-09T05:00:49.979Z,98660.13
2023-05-09T05:03:51.336Z,98660.81
2023-05-09T05:06:52.744Z,98667.00
2023-05-09T05:09:54.114Z,98662.47
2023-05-09T05:12:55.506Z,98659.41
2023-05-09T05:15:58.342Z,98659.03
2023-05-09T05:18:59.782Z,98652.53
2023-05-09T05:22:01.494Z,98649.00
2023-05-09T05:25:04.503Z,98651.31
2023-05-09T05:28:06.029Z,98653.09
2023-05-09T05:31:07.736Z,98659.34
2023-05-09T05:34:09.168Z,98653.16
2023-05-09T05:37:10.590Z,98647.38
2023-05-09T05:40:12.012Z,98647.88
2023-05-09T05:43:13.898Z,98641.25
2023-05-09T05:46:15.338Z,98640.84
2023-05-09T05:49:16.721Z,98634.13
2023-05-09T05:52:18.124Z,98631.16
2023-05-09T05:55:19.809Z,98630.50
2023-05-09T05:58:21.724Z,98636.56
2023-05-09T06:01:23.071Z,98623.47
2023-05-09T06:04:24.926Z,98626.03
2023-05-09T06:07:26.654Z,98620.16
2023-05-09T06:10:28.101Z,98622.72
2023-05-09T06:13:29.510Z,98621.66
2023-05-09T06:16:31.052Z,98622.03
2023-05-09T06:19:32.428Z,98619.75
2023-05-09T06:22:33.902Z,98623.38
2023-05-09T06:25:35.277Z,98623.63
2023-05-09T06:28:37.144Z,98621.06
2023-05-09T06:31:39.162Z,98622.41
2023-05-09T06:34:41.969Z,98610.31
2023-05-09T06:37:43.361Z,98611.00
2023-05-09T06:40:44.714Z,98606.84
2023-05-09T06:43:46.084Z,98609.78
2023-05-09T06:46:47.554Z,98605.34
2023-05-09T06:49:48.972Z,98595.09
2023-05-09T06:52:50.374Z,98592.38
2023-05-09T06:55:51.747Z,98581.94
2023-05-09T06:58:53.385Z,98576.31
2023-05-09T07:01:55.818Z,98572.34
2023-05-09T07:04:57.333Z,98568.66
2023-05-09T07:07:58.789Z,98574.56
2023-05-09T07:11:00.169Z,98560.69
2023-05-09T07:14:01.583Z,98563.31
2023-05-09T07:17:21.182Z,98560.94
2023-05-09T07:20:23.899Z,98557.22
2023-05-09T07:23:26.965Z,98548.28
2023-05-09T07:26:28.330Z,98550.59
2023-05-09T07:29:29.796Z,98553.22
2023-05-09T07:32:31.261Z,98542.06
2023-05-09T07:35:32.624Z,98540.84
2023-05-09T07:38:34.017Z,98540.00
2023-05-09T07:41:35.373Z,98540.81
2023-05-09T07:44:36.773Z,98539.56
2023-05-09T07:47:38.228Z,98539.25
2023-05-09T07:50:40.293Z,98533.34
2023-05-09T07:53:41.649Z,98525.75
2023-05-09T07:56:43.052Z,98525.84
2023-05-09T07:59:44.403Z,98527.84
2023-05-09T08:02:45.963Z,98525.22
2023-05-09T08:05:47.450Z,98521.59
2023-05-09T08:08:48.809Z,98512.72
2023-05-09T08:11:50.260Z,98502.66
2023-05-09T08:14:51.668Z,98504.13
2023-05-09T08:17:53.149Z,98506.84
2023-05-09T08:20:54.599Z,98499.88
2023-05-09T08:23:55.984Z,98492.69
2023-05-09T08:26:57.393Z,98491.22
2023-05-09T08:29:58.753Z,98482.94
2023-05-09T08:33:00.334Z,98481.03
2023-05-09T08:36:02.419Z,98487.19
2023-05-09T08:39:03.888Z,98475.28
2023-05-09T08:42:06.024Z,98471.84
2023-05-09T08:45:09.723Z,98463.44
2023-05-09T08:48:11.694Z,98456.09
2023-05-09T08:51:13.767Z,98448.78
2023-05-09T08:54:15.821Z,98443.09
2023-05-09T08:57:17.417Z,98435.78
2023-05-09T09:00:21.389Z,98436.31
2023-05-09T09:03:23.953Z,98430.28
2023-05-09T09:06:25.877Z,98431.06
2023-05-09T09:09:28.280Z,98430.25
2023-05-09T09:12:29.940Z,98425.19
2023-05-09T09:15:35.951Z,98423.28
2023-05-09T09:18:39.308Z,98423.41
2023-05-09T09:21:43.282Z,98411.31
2023-05-09T09:24:44.685Z,98415.75
2023-05-09T09:27:46.066Z,98420.19
2023-05-09T09:30:48.335Z,98418.81
2023-05-09T09:33:50.206Z,98409.94
2023-05-09T09:36:51.615Z,98404.75
2023-05-09T09:39:57.133Z,98398.16
2023-05-09T09:42:58.514Z,98388.44
2023-05-09T09:46:04.228Z,98379.59
2023-05-09T09:49:05.668Z,98375.53
2023-05-09T09:52:07.069Z,98363.84
2023-05-09T09:55:08.795Z,98367.00
2023-05-09T09:58:17.181Z,98368.78
2023-05-09T10:01:18.637Z,98361.72
2023-05-09T10:04:20.133Z,98355.47
2023-05-09T10:07:23.918Z,98350.72
2023-05-09T10:10:27.402Z,98347.91
2023-05-09T10:13:29.078Z,98338.66
2023-05-09T10:16:40.108Z,98341.31
2023-05-09T10:19:46.374Z,98335.19
2023-05-09T10:22:49.012Z,98330.72
2023-05-09T10:26:16.512Z,98327.53
2023-05-09T10:29:22.897Z,98316.50
2023-05-09T10:32:31.362Z,98318.41
2023-05-09T10:35:40.706Z,98303.97
2023-05-09T10:38:42.824Z,98290.53
2023-05-09T10:41:44.666Z,98293.00
2023-05-09T10:44:49.670Z,98285.72
2023-05-09T10:47:52.981Z,98276.34
2023-05-09T10:50:55.704Z,98284.06
2023-05-09T10:53:57.900Z,98270.66
2023-05-09T10:57:00.124Z,98266.84
2023-05-09T11:00:01.516Z,98246.91
2023-05-09T11:03:06.888Z,98243.06
2023-05-09T11:06:08.642Z,98237.66
2023-05-09T11:09:38.249Z,98235.31
2023-05-09T11:12:57.949Z,98234.03
2023-05-09T11:16:02.751Z,98229.03
2023-05-09T11:19:05.844Z,98215.41
2023-05-09T11:22:20.077Z,98210.41
2023-05-09T11:25:25.958Z,98200.38
2023-05-09T11:28:30.198Z,98195.72
2023-05-09T11:31:31.638Z,98198.91
2023-05-09T11:34:34.210Z,98192.19
2023-05-09T11:38:05.515Z,98194.50
2023-05-09T11:41:07.168Z,98192.16
2023-05-09T11:44:27.875Z,98185.13
2023-05-09T11:47:30.712Z,98184.69
2023-05-09T11:50:32.100Z,98179.13
2023-05-09T11:53:33.717Z,98170.63
2023-05-09T11:56:36.285Z,98163.88
2023-05-09T11:59:38.358Z,98150.63
2023-05-09T12:02:40.002Z,98151.88
2023-05-09T12:05:42.603Z,98146.59
2023-05-09T12:08:45.558Z,98139.47
2023-05-09T12:11:50.328Z,98131.16
2023-05-09T12:14:51.974Z,98133.28
2023-05-09T12:18:07.901Z,98124.09
2023-05-09T12:21:09.458Z,98113.22
2023-05-09T12:24:10.851Z,98111.16
2023-05-09T12:27:12.523Z,98110.16
2023-05-09T12:30:16.056Z,98107.94
2023-05-09T12:33:18.030Z,98113.50
2023-05-09T12:36:19.486Z,98097.38
2023-05-09T12:39:24.528Z,98089.72
2023-05-09T12:42:29.236Z,98095.09
2023-05-09T12:45:32.146Z,98095.72
2023-05-09T12:48:37.865Z,98087.50
2023-05-09T12:51:49.254Z,98077.50
2023-05-09T12:54:52.440Z,98073.91
2023-05-09T12:58:02.251Z,98074.72
2023-05-09T13:01:04.681Z,98060.09
2023-05-09T13:04:06.695Z,98071.16
2023-05-09T13:07:11.306Z,98056.88
2023-05-09T13:10:14.456Z,98067.16
2023-05-09T13:13:16.663Z,98052.81
2023-05-09T13:16:18.315Z,98047.53
2023-05-09T13:19:19.828Z,98035.38
2023-05-09T13:22:21.182Z,98043.94
2023-05-09T13:25:22.547Z,98033.34
2023-05-09T13:28:23.911Z,98016.41
2023-05-09T13:31:25.556Z,98023.56
2023-05-09T13:34:27.120Z,98022.94
2023-05-09T13:37:28.593Z,98012.31
2023-05-09T13:40:29.974Z,98011.72
2023-05-09T13:43:31.307Z,98003.94
2023-05-09T13:46:32.735Z,98002.50
2023-05-09T13:49:34.931Z,97995.78
2023-05-09T13:52:36.354Z,97997.22
2023-05-09T13:55:37.873Z,97997.41
2023-05-09T13:58:39.229Z,97983.75
2023-05-09T14:01:41.112Z,97987.22
2023-05-09T14:04:42.538Z,97984.56
2023-05-09T14:07:44.981Z,97969.47
2023-05-09T14:10:46.395Z,97970.47
2023-05-09T14:13:47.837Z,97959.41
2023-05-09T14:16:49.645Z,97954.56
2023-05-09T14:19:51.057Z,97964.56
2023-05-09T14:22:54.973Z,97967.03
2023-05-09T14:25:56.409Z,97960.06
2023-05-09T14:28:57.804Z,97958.81
2023-05-09T14:31:59.161Z,97955.31
2023-05-09T14:35:00.702Z,97937.56
2023-05-09T14:38:03.029Z,97930.06
2023-05-09T14:41:04.564Z,97922.47
2023-05-09T14:44:05.975Z,97915.78
2023-05-09T14:47:08.434Z,97909.84
2023-05-09T14:50:11.410Z,97909.63
2023-05-09T14:53:13.225Z,97905.13
2023-05-09T14:56:14.613Z,97897.38
2023-05-09T14:59:16.301Z,97889.28
2023-05-09T15:02:17.810Z,97893.56
2023-05-09T15:05:19.203Z,97887.03
2023-05-09T15:08:20.718Z,97881.72
2023-05-09T15:11:22.522Z,97871.88
2023-05-09T15:14:24.701Z,97869.22
2023-05-09T15:17:26.470Z,97864.72
2023-05-09T15:20:27.857Z,97853.94
2023-05-09T15:23:29.600Z,97854.16
2023-05-09T15:26:31.149Z,97850.91
2023-05-09T15:29:32.525Z,97853.16
2023-05-09T15:32:34.662Z,97846.06
2023-05-09T15:35:36.732Z,97840.59
2023-05-09T15:38:38.535Z,97847.94
2023-05-09T15:41:40.347Z,97838.34
2023-05-09T15:44:42.768Z,97842.41
2023-05-09T15:47:44.254Z,97845.88
2023-05-09T15:50:45.652Z,97840.75
2023-05-09T15:53:47.162Z,97833.63
2023-05-09T15:56:48.512Z,97830.41
2023-05-09T15:59:49.885Z,97824.88
2023-05-09T16:02:51.396Z,97819.78
2023-05-09T16:05:53.207Z,97814.47
2023-05-09T16:08:54.684Z,97815.66
2023-05-09T16:11:56.345Z,97801.25
2023-05-09T16:14:57.783Z,97810.00
2023-05-09T16:17:59.121Z,97804.09
2023-05-09T16:21:00.565Z,97804.31
2023-05-09T16:24:03.206Z,97802.25
2023-05-09T16:27:04.705Z,97798.78
2023-05-09T16:30:06.632Z,97796.56
2023-05-09T16:33:08.123Z,97789.44
2023-05-09T16:36:09.615Z,97791.44
2023-05-09T16:39:10.962Z,97781.22
2023-05-09T16:42:13.408Z,97779.75
2023-05-09T16:45:14.864Z,97778.50
2023-05-09T16:48:17.847Z,97769.78
2023-05-09T16:51:19.299Z,97762.00
2023-05-09T16:54:21.329Z,97755.69
2023-05-09T16:57:22.803Z,97758.09
2023-05-09T17:00:24.175Z,97747.72
2023-05-09T17:03:25.622Z,97741.78
2023-05-09T17:06:27.963Z,97746.44
2023-05-09T17:09:29.626Z,97735.25
2023-05-09T17:12:31.015Z,97730.22
2023-05-09T17:15:34.221Z,97720.25
2023-05-09T17:18:38.044Z,97713.34
2023-05-09T17:21:41.462Z,97721.63
2023-05-09T17:24:43.627Z,97716.59
2023-05-09T17:27:45.236Z,97713.28
2023-05-09T17:30:46.771Z,97708.97
2023-05-09T17:33:48.143Z,97714.00
2023-05-09T17:36:49.906Z,97700.81
2023-05-09T17:39:51.643Z,97708.28
2023-05-09T17:42:53.224Z,97699.56
2023-05-09T17:45:54.645Z,97707.25
2023-05-09T17:48:56.299Z,97715.72
2023-05-09T17:51:57.656Z,97700.47
2023-05-09T17:55:00.299Z,97696.59
2023-05-09T17:58:01.737Z,97690.41
2023-05-09T18:01:03.148Z,97697.53
2023-05-09T18:04:04.654Z,97695.22
2023-05-09T18:07:06.089Z,97680.38
2023-05-09T18:10:08.795Z,97681.47
2023-05-09T18:13:10.814Z,97681.59
2023-05-09T18:16:12.335Z,97680.59
2023-05-09T18:19:13.777Z,97681.56
2023-05-09T18:22:15.908Z,97676.22
2023-05-09T18:25:17.358Z,97673.22
2023-05-09T18:28:24.342Z,97671.84
2023-05-09T18:31:25.872Z,97665.81
2023-05-09T18:34:28.262Z,97672.41
2023-05-09T18:37:29.819Z,97662.38
2023-05-09T18:40:32.525Z,97659.19
2023-05-09T18:43:35.237Z,97668.84
2023-05-09T18:46:38.003Z,97668.03
2023-05-09T18:49:39.434Z,97672.31
2023-05-09T18:52:40.903Z,97667.00
2023-05-09T18:55:42.726Z,97660.00
2023-05-09T18:58:44.457Z,97665.75
2023-05-09T19:01:45.853Z,97664.13
2023-05-09T19:04:48.109Z,97674.19
2023-05-09T19:07:49.821Z,97663.22
2023-05-09T19:10:51.350Z,97673.97
2023-05-09T19:13:53.229Z,97675.78
2023-05-09T19:16:54.690Z,97676.34
2023-05-09T19:19:56.126Z,97673.59
2023-05-09T19:22:58.169Z,97678.38
2023-05-09T19:25:59.919Z,97673.38
2023-05-09T19:29:04.083Z,97683.19
2023-05-09T19:32:06.947Z,97691.09
2023-05-09T19:35:08.991Z,97689.66
2023-05-09T19:38:13.009Z,97692.50
2023-05-09T19:41:14.401Z,97697.94
2023-05-09T19:44:15.831Z,97694.88
2023-05-09T19:47:17.204Z,97694.06
2023-05-09T19:50:18.814Z,97699.09
2023-05-09T19:53:20.267Z,97699.63
2023-05-09T19:56:23.359Z,97704.81
2023-05-09T19:59:24.778Z,97701.91
2023-05-09T20:02:26.282Z,97702.75
2023-05-09T20:05:27.698Z,97701.66
2023-05-09T20:08:29.913Z,97697.59
2023-05-09T20:11:31.289Z,97706.03
2023-05-09T20:14:32.835Z,97705.13
2023-05-09T20:17:34.276Z,97699.41
2023-05-09T20:20:35.721Z,97701.44
2023-05-09T20:23:38.043Z,97706.91
2023-05-09T20:26:39.457Z,97709.19
2023-05-09T20:29:40.968Z,97709.09
2023-05-09T20:32:43.052Z,97706.25
2023-05-09T20:35:44.680Z,97704.53
2023-05-09T20:38:46.007Z,97702.09
2023-05-09T20:41:49.034Z,97697.53
2023-05-09T20:44:51.507Z,97700.44
2023-05-09T20:47:52.894Z,97695.53
2023-05-09T20:50:54.258Z,97686.47
2023-05-09T20:53:55.699Z,97686.91
2023-05-09T20:56:57.143Z,97687.78
2023-05-09T20:59:58.597Z,97692.22
2023-05-09T21:03:00.471Z,97682.16
2023-05-09T21:06:02.058Z,97682.31
2023-05-09T21:09:05.360Z,97681.13
2023-05-09T21:12:07.789Z,97678.13
2023-05-09T21:15:10.934Z,97677.63
2023-05-09T21:18:12.325Z,97682.88
2023-05-09T21:21:13.721Z,97700.03
2023-05-09T21:24:15.066Z,97724.16
2023-05-09T21:27:16.605Z,97744.00
2023-05-09T21:30:18.128Z,97746.56
2023-05-09T21:33:20.650Z,97740.38
2023-05-09T21:36:22.098Z,97744.78
2023-05-09T21:39:23.488Z,97739.84
2023-05-09T21:42:24.853Z,97743.72
2023-05-09T21:45:26.231Z,97745.00
2023-05-09T21:48:27.657Z,97737.94
2023-05-09T21:51:29.533Z,97733.75
2023-05-09T21:54:30.940Z,97721.97
2023-05-09T21:57:32.296Z,97722.97
2023-05-09T22:00:33.733Z,97729.44
2023-05-09T22:03:35.791Z,97727.44
2023-05-09T22:06:37.292Z,97728.50
2023-05-09T22:09:38.634Z,97731.66
2023-05-09T22:12:40.067Z,97728.16
2023-05-09T22:15:42.183Z,97729.94
2023-05-09T22:18:43.558Z,97723.50
2023-05-09T22:21:44.954Z,97719.88
2023-05-09T22:24:46.318Z,97719.53
2023-05-09T22:27:47.776Z,97705.28
2023-05-09T22:30:49.236Z,97708.72
2023-05-09T22:33:50.666Z,97708.09
2023-05-09T22:36:54.337Z,97705.75
2023-05-09T22:39:55.767Z,97699.50
2023-05-09T22:42:57.199Z,97701.03
2023-05-09T22:45:58.568Z,97694.09
2023-05-09T22:48:59.922Z,97694.06
2023-05-09T22:52:01.518Z,97695.63
2023-05-09T22:55:03.382Z,97691.81
2023-05-09T22:58:05.942Z,97687.75
2023-05-09T23:01:07.343Z,97690.06
2023-05-09T23:04:08.729Z,97687.97
2023-05-09T23:07:10.109Z,97685.28
2023-05-09T23:10:11.492Z,97682.47
2023-05-09T23:13:12.853Z,97672.97
2023-05-09T23:16:14.327Z,97670.22
2023-05-09T23:19:15.699Z,97667.28
2023-05-09T23:22:17.077Z,97661.66
2023-05-09T23:25:18.517Z,97652.75
2023-05-09T23:28:25.100Z,97657.19
2023-05-09T23:31:26.520Z,97655.66
2023-05-09T23:34:27.961Z,97655.84
2023-05-09T23:37:29.359Z,97643.06
2023-05-09T23:40:30.826Z,97648.63
2023-05-09T23:43:32.637Z,97654.66
2023-05-09T23:46:34.117Z,97657.22
2023-05-09T23:49:35.930Z,97660.50
2023-05-09T23:52:37.320Z,97657.69
2023-05-09T23:55:38.762Z,97653.25
2023-05-09T23:58:40.322Z,97648.53
